Time;durP1;ratioP1;P1;durP2;ratioP2;P2;SDS_P1;SDS_P2;PMS_P1;PMS_P2;Temp;Humidity;BMP_temperature;BMP_pressure;BME280_temperature;BME280_humidity;BME280_pressure;Samples;Min_cycle;Max_cycle;Signal;HPM_P1;HPM_P2
2022/08/03 00:01:16;;;;;;;6.88;3.38;;;;;;;;;;5034875;28;20128;-68
2022/08/03 00:03:42;;;;;;;6.70;3.55;;;;;;;;;;5040783;28;20112;-66
2022/08/03 00:06:08;;;;;;;7.55;3.55;;;;;;;;;;5051921;28;20164;-66
2022/08/03 00:08:33;;;;;;;5.18;3.30;;;;;;;;;;5036157;28;20075;-66
2022/08/03 00:10:59;;;;;;;5.93;3.50;;;;;;;;;;5033933;28;20502;-65
2022/08/03 00:13:24;;;;;;;5.15;3.50;;;;;;;;;;5036087;28;20048;-66
2022/08/03 00:15:50;;;;;;;8.25;3.30;;;;;;;;;;5024790;28;20124;-67
2022/08/03 00:18:16;;;;;;;7.57;3.50;;;;;;;;;;5039726;28;20456;-69
2022/08/03 00:20:41;;;;;;;6.60;3.55;;;;;;;;;;5031827;28;20041;-64
2022/08/03 00:23:07;;;;;;;5.68;3.42;;;;;;;;;;5033880;28;20029;-66
2022/08/03 00:25:34;;;;;;;5.05;3.50;;;;;;;;;;5037826;28;20377;-66
2022/08/03 00:27:59;;;;;;;5.53;3.28;;;;;;;;;;5032720;28;20500;-67
2022/08/03 00:30:25;;;;;;;5.57;3.40;;;;;;;;;;5031529;28;20061;-65
2022/08/03 00:32:50;;;;;;;8.38;3.40;;;;;;;;;;5037179;28;20382;-65
2022/08/03 00:35:16;;;;;;;5.30;3.35;;;;;;;;;;5016004;28;20033;-65
2022/08/03 00:37:41;;;;;;;6.97;3.30;;;;;;;;;;5048413;28;20128;-65
2022/08/03 00:40:09;;;;;;;5.40;3.45;;;;;;;;;;5046673;28;20377;-66
2022/08/03 00:42:34;;;;;;;6.10;3.30;;;;;;;;;;5046998;28;20390;-66
2022/08/03 00:44:59;;;;;;;7.70;3.17;;;;;;;;;;5041966;28;20462;-66
2022/08/03 00:47:25;;;;;;;5.07;3.10;;;;;;;;;;5032472;28;20029;-66
2022/08/03 00:49:50;;;;;;;4.47;3.03;;;;;;;;;;5013931;28;20029;-66
2022/08/03 00:52:16;;;;;;;5.90;3.10;;;;;;;;;;5034551;28;20025;-66
2022/08/03 00:54:42;;;;;;;5.97;3.30;;;;;;;;;;5039712;28;20033;-65
2022/08/03 00:57:07;;;;;;;9.18;3.40;;;;;;;;;;5032633;28;20077;-67
2022/08/03 00:59:33;;;;;;;5.22;3.08;;;;;;;;;;5030226;28;20037;-65
2022/08/03 01:01:59;;;;;;;6.20;3.30;;;;;;;;;;5052120;28;20041;-67
2022/08/03 01:04:24;;;;;;;4.93;3.00;;;;;;;;;;5047316;28;20033;-66
2022/08/03 01:07:16;;;;;;;5.63;3.25;;;;;;;;;;5052790;28;20033;-66
2022/08/03 01:10:01;;;;;;;5.65;3.30;;;;;;;;;;5042993;28;20614;-66
2022/08/03 01:12:41;;;;;;;5.00;3.08;;;;;;;;;;5048988;28;20108;-66
2022/08/03 01:15:13;;;;;;;7.25;2.97;;;;;;;;;;5051571;28;20033;-66
2022/08/03 01:17:51;;;;;;;4.13;2.90;;;;;;;;;;5051962;28;20033;-66
2022/08/03 01:20:19;;;;;;;5.68;3.10;;;;;;;;;;5044489;28;20037;-65
2022/08/03 01:22:53;;;;;;;5.90;3.05;;;;;;;;;;5031077;28;20060;-66
2022/08/03 01:25:56;;;;;;;6.25;3.00;;;;;;;;;;5033306;28;20029;-66
2022/08/03 01:29:06;;;;;;;5.18;3.10;;;;;;;;;;5037433;28;20112;-68
2022/08/03 01:31:39;;;;;;;4.70;3.17;;;;;;;;;;4997750;28;20431;-66
2022/08/03 01:34:10;;;;;;;6.38;3.03;;;;;;;;;;5052285;28;20254;-66
2022/08/03 01:36:39;;;;;;;5.03;3.17;;;;;;;;;;5047117;28;20025;-66
2022/08/03 01:39:08;;;;;;;5.57;3.00;;;;;;;;;;5045170;28;20058;-66
2022/08/03 01:41:38;;;;;;;4.75;3.03;;;;;;;;;;5039052;28;20496;-66
2022/08/03 01:44:06;;;;;;;;;;;;;;;;;;5039198;28;20029;-66
2022/08/03 01:46:33;;;;;;;5.65;3.20;;;;;;;;;;5041949;28;19959;-66
2022/08/03 01:49:00;;;;;;;5.15;2.97;;;;;;;;;;5030851;28;20048;-66
2022/08/03 01:51:27;;;;;;;4.72;3.20;;;;;;;;;;5031224;28;20467;-69
2022/08/03 01:53:53;;;;;;;5.15;3.05;;;;;;;;;;5039488;28;20367;-66
2022/08/03 01:56:22;;;;;;;5.68;3.22;;;;;;;;;;5032270;28;20053;-66
2022/08/03 01:58:49;;;;;;;5.63;3.20;;;;;;;;;;5021610;28;20025;-66
2022/08/03 02:01:15;;;;;;;7.30;3.10;;;;;;;;;;5031275;28;20077;-66
2022/08/03 02:03:42;;;;;;;5.82;3.30;;;;;;;;;;5031969;28;20046;-65
2022/08/03 02:06:12;;;;;;;4.78;2.92;;;;;;;;;;5041639;28;21638;-66
2022/08/03 02:08:42;;;;;;;7.88;3.28;;;;;;;;;;5035745;28;20038;-67
2022/08/03 02:11:07;;;;;;;4.90;2.92;;;;;;;;;;5036375;28;20036;-67
2022/08/03 02:13:34;;;;;;;6.22;2.90;;;;;;;;;;5037856;28;20482;-67
2022/08/03 02:16:02;;;;;;;5.10;3.00;;;;;;;;;;5029907;28;20097;-67
2022/08/03 02:18:30;;;;;;;6.50;3.08;;;;;;;;;;5028662;28;20057;-67
2022/08/03 02:20:56;;;;;;;5.72;3.20;;;;;;;;;;5031060;28;20044;-66
2022/08/03 02:23:22;;;;;;;5.07;3.22;;;;;;;;;;5029539;28;20103;-67
2022/08/03 02:25:56;;;;;;;7.20;2.80;;;;;;;;;;5029394;28;20486;-67
2022/08/03 02:28:28;;;;;;;4.78;3.10;;;;;;;;;;5031514;28;20041;-66
2022/08/03 02:30:55;;;;;;;4.78;3.13;;;;;;;;;;5034186;28;20037;-66
2022/08/03 02:33:29;;;;;;;6.47;3.30;;;;;;;;;;5042372;28;20033;-66
2022/08/03 02:35:56;;;;;;;5.40;3.03;;;;;;;;;;5043978;28;20125;-66
2022/08/03 02:38:26;;;;;;;6.90;3.20;;;;;;;;;;5031479;28;20381;-66
2022/08/03 02:40:55;;;;;;;5.22;3.10;;;;;;;;;;5029370;28;20083;-66
2022/08/03 02:43:22;;;;;;;6.88;3.50;;;;;;;;;;5035806;28;20056;-66
2022/08/03 02:45:50;;;;;;;5.60;3.10;;;;;;;;;;5049855;28;20515;-66
2022/08/03 02:48:19;;;;;;;6.93;3.40;;;;;;;;;;5029488;28;20496;-66
2022/08/03 02:50:46;;;;;;;4.88;3.20;;;;;;;;;;5031992;28;20037;-65
2022/08/03 02:53:13;;;;;;;8.00;3.20;;;;;;;;;;5029220;28;20037;-65
2022/08/03 02:55:39;;;;;;;6.55;3.38;;;;;;;;;;5030490;28;20053;-68
2022/08/03 02:58:06;;;;;;;6.50;3.50;;;;;;;;;;5020640;28;20038;-66
2022/08/03 03:00:33;;;;;;;6.05;3.28;;;;;;;;;;5019699;28;20038;-67
2022/08/03 03:03:00;;;;;;;7.00;3.28;;;;;;;;;;5013044;28;20040;-67
2022/08/03 03:05:26;;;;;;;5.60;3.45;;;;;;;;;;5007991;28;20034;-68
2022/08/03 03:07:51;;;;;;;4.90;3.50;;;;;;;;;;4997654;28;20037;-66
2022/08/03 03:10:18;;;;;;;4.85;3.25;;;;;;;;;;5018622;28;20040;-68
2022/08/03 03:12:45;;;;;;;5.65;3.20;;;;;;;;;;5027388;28;20133;-67
2022/08/03 03:15:11;;;;;;;5.53;3.38;;;;;;;;;;5024896;28;20029;-65
2022/08/03 03:17:37;;;;;;;5.85;3.38;;;;;;;;;;5025220;28;20048;-66
2022/08/03 03:20:04;;;;;;;5.95;3.70;;;;;;;;;;5023114;28;20120;-66
2022/08/03 03:22:32;;;;;;;6.70;3.40;;;;;;;;;;5014426;28;20033;-67
2022/08/03 03:24:58;;;;;;;6.50;3.25;;;;;;;;;;5027733;28;20041;-71
2022/08/03 03:27:24;;;;;;;6.55;3.70;;;;;;;;;;5009565;28;20045;-68
2022/08/03 03:29:49;;;;;;;8.73;3.90;;;;;;;;;;5010002;28;20643;-61
2022/08/03 03:32:15;;;;;;;5.47;3.40;;;;;;;;;;5011046;28;20036;-61
2022/08/03 03:34:41;;;;;;;6.18;3.40;;;;;;;;;;5028992;28;20045;-61
2022/08/03 03:37:07;;;;;;;7.20;3.65;;;;;;;;;;5031478;28;20034;-62
2022/08/03 03:39:32;;;;;;;6.95;3.80;;;;;;;;;;5017710;28;20084;-61
2022/08/03 03:41:59;;;;;;;5.93;3.25;;;;;;;;;;5011353;28;20042;-61
2022/08/03 03:44:27;;;;;;;6.05;3.33;;;;;;;;;;5012398;28;20036;-61
2022/08/03 03:46:54;;;;;;;5.65;3.65;;;;;;;;;;5015025;28;20030;-61
2022/08/03 03:49:20;;;;;;;4.43;3.40;;;;;;;;;;5015457;28;20038;-61
2022/08/03 03:51:45;;;;;;;9.50;3.70;;;;;;;;;;4996928;28;20033;-62
2022/08/03 03:54:11;;;;;;;5.57;3.67;;;;;;;;;;5018484;28;20033;-61
2022/08/03 03:56:37;;;;;;;5.60;3.60;;;;;;;;;;5041999;28;20071;-61
2022/08/03 03:59:02;;;;;;;9.05;3.90;;;;;;;;;;5054559;28;20029;-61
2022/08/03 04:01:28;;;;;;;8.38;4.00;;;;;;;;;;5054445;28;20036;-61
2022/08/03 04:03:53;;;;;;;6.80;3.45;;;;;;;;;;5035847;28;20052;-62
2022/08/03 04:11:53;;;;;;;5.72;3.80;;;;;;;;;;5053835;28;20497;-63
2022/08/03 04:14:27;;;;;;;6.68;3.65;;;;;;;;;;5054613;28;20048;-61
2022/08/03 04:16:57;;;;;;;6.85;3.55;;;;;;;;;;5053750;28;20493;-62
2022/08/03 04:19:29;;;;;;;6.00;3.50;;;;;;;;;;5054803;28;20025;-62
2022/08/03 04:21:59;;;;;;;6.65;3.70;;;;;;;;;;5054009;28;20037;-61
2022/08/03 04:24:31;;;;;;;7.57;4.30;;;;;;;;;;5050607;28;20033;-61
2022/08/03 04:26:59;;;;;;;8.50;3.88;;;;;;;;;;5054426;28;20370;-62
2022/08/03 04:29:27;;;;;;;9.20;4.10;;;;;;;;;;5054378;28;20051;-62
2022/08/03 04:31:56;;;;;;;6.20;3.95;;;;;;;;;;5035782;28;20032;-61
2022/08/03 04:34:21;;;;;;;7.25;3.88;;;;;;;;;;5054289;28;20037;-62
2022/08/03 04:36:49;;;;;;;6.40;4.00;;;;;;;;;;5053686;28;20029;-63
2022/08/03 04:39:24;;;;;;;7.45;3.92;;;;;;;;;;5040111;28;20037;-61
2022/08/03 04:41:53;;;;;;;7.40;3.70;;;;;;;;;;5033749;28;20034;-61
2022/08/03 04:44:20;;;;;;;6.68;3.85;;;;;;;;;;5034274;28;20113;-61
2022/08/03 04:46:46;;;;;;;5.53;3.83;;;;;;;;;;5033626;28;20079;-61
2022/08/03 04:49:12;;;;;;;8.55;4.30;;;;;;;;;;5034138;28;20057;-63
2022/08/03 04:51:39;;;;;;;6.85;4.10;;;;;;;;;;5033276;28;20030;-62
2022/08/03 04:54:06;;;;;;;13.15;4.32;;;;;;;;;;5040612;28;20123;-62
2022/08/03 04:56:33;;;;;;;11.38;4.88;;;;;;;;;;5052781;28;20473;-61
2022/08/03 04:58:58;;;;;;;9.48;4.18;;;;;;;;;;5053893;28;20033;-62
2022/08/03 05:01:24;;;;;;;10.13;4.60;;;;;;;;;;5053790;28;20384;-61
2022/08/03 05:03:50;;;;;;;7.70;4.60;;;;;;;;;;5053097;28;20249;-61
2022/08/03 05:06:15;;;;;;;7.97;4.43;;;;;;;;;;5053457;28;20037;-62
2022/08/03 05:08:41;;;;;;;8.63;4.30;;;;;;;;;;5045512;28;20060;-62
2022/08/03 05:11:06;;;;;;;8.85;4.32;;;;;;;;;;5053599;28;20043;-62
2022/08/03 05:13:32;;;;;;;7.82;4.30;;;;;;;;;;5053554;28;20382;-62
2022/08/03 05:15:57;;;;;;;10.93;4.30;;;;;;;;;;5052840;28;20063;-62
2022/08/03 05:18:22;;;;;;;11.00;4.47;;;;;;;;;;5053189;28;20033;-61
2022/08/03 05:20:48;;;;;;;9.77;4.85;;;;;;;;;;5052578;28;20040;-62
2022/08/03 05:23:13;;;;;;;11.20;4.28;;;;;;;;;;5049669;28;20040;-62
2022/08/03 05:25:39;;;;;;;8.35;4.70;;;;;;;;;;5052370;28;20482;-61
2022/08/03 05:28:04;;;;;;;8.60;4.32;;;;;;;;;;5053256;28;20024;-62
2022/08/03 05:30:30;;;;;;;9.13;4.18;;;;;;;;;;5053227;28;20032;-61
2022/08/03 05:32:55;;;;;;;11.05;4.40;;;;;;;;;;5052415;28;20115;-61
2022/08/03 05:35:20;;;;;;;8.30;4.25;;;;;;;;;;5052724;28;20024;-62
2022/08/03 05:37:46;;;;;;;8.80;4.20;;;;;;;;;;5047606;28;20385;-62
2022/08/03 05:40:12;;;;;;;7.72;3.90;;;;;;;;;;5050433;28;20400;-61
2022/08/03 05:42:37;;;;;;;9.63;4.40;;;;;;;;;;5052836;28;20142;-61
2022/08/03 05:45:18;;;;;;;8.13;4.18;;;;;;;;;;5052897;28;20076;-61
2022/08/03 05:47:44;;;;;;;9.77;4.10;;;;;;;;;;5034341;28;20060;-61
2022/08/03 05:50:11;;;;;;;8.32;3.95;;;;;;;;;;5052538;28;20523;-61
2022/08/03 05:52:37;;;;;;;7.57;3.88;;;;;;;;;;5051966;28;20025;-61
2022/08/03 05:55:08;;;;;;;8.70;3.80;;;;;;;;;;5047692;28;20480;-63
2022/08/03 05:57:33;;;;;;;8.95;3.63;;;;;;;;;;5052646;28;20056;-62
2022/08/03 06:00:00;;;;;;;8.27;4.00;;;;;;;;;;5052022;28;20033;-63
2022/08/03 06:02:26;;;;;;;6.50;3.63;;;;;;;;;;5052684;28;20029;-69
2022/08/03 06:04:52;;;;;;;6.97;3.80;;;;;;;;;;5051801;28;20040;-64
2022/08/03 06:07:17;;;;;;;11.77;4.00;;;;;;;;;;5051826;28;20033;-63
2022/08/03 06:09:43;;;;;;;10.68;3.90;;;;;;;;;;5041714;28;20067;-62
2022/08/03 06:12:08;;;;;;;9.35;3.85;;;;;;;;;;5035419;28;20037;-62
2022/08/03 06:14:33;;;;;;;12.05;3.90;;;;;;;;;;5032376;28;20095;-62
2022/08/03 06:16:59;;;;;;;10.45;4.03;;;;;;;;;;5031499;28;20063;-66
2022/08/03 06:19:26;;;;;;;10.68;4.18;;;;;;;;;;5032369;28;20065;-63
2022/08/03 06:21:52;;;;;;;9.82;3.53;;;;;;;;;;5037727;28;20028;-64
2022/08/03 06:24:17;;;;;;;7.22;3.80;;;;;;;;;;5032381;28;20033;-62
2022/08/03 06:26:42;;;;;;;9.20;3.75;;;;;;;;;;5031759;28;20100;-63
2022/08/03 06:29:08;;;;;;;7.85;3.50;;;;;;;;;;5032368;28;20071;-63
2022/08/03 06:31:33;;;;;;;8.15;3.70;;;;;;;;;;5032170;28;20039;-63
2022/08/03 06:33:59;;;;;;;11.68;3.80;;;;;;;;;;5031693;28;20033;-63
2022/08/03 06:36:30;;;;;;;10.43;3.80;;;;;;;;;;5032251;28;20079;-64
2022/08/03 06:38:56;;;;;;;17.75;4.07;;;;;;;;;;5040710;28;20029;-63
2022/08/03 06:41:21;;;;;;;6.85;4.07;;;;;;;;;;5047375;28;20112;-61
2022/08/03 06:43:47;;;;;;;10.55;3.83;;;;;;;;;;5034877;28;20117;-61
2022/08/03 06:46:12;;;;;;;6.82;3.63;;;;;;;;;;5035061;28;20029;-60
2022/08/03 06:48:37;;;;;;;5.78;3.67;;;;;;;;;;5014325;28;20232;-61
2022/08/03 06:51:03;;;;;;;10.98;3.45;;;;;;;;;;5031041;28;20033;-62
2022/08/03 06:53:28;;;;;;;7.30;3.25;;;;;;;;;;5014320;28;20435;-61
2022/08/03 06:55:53;;;;;;;8.50;3.50;;;;;;;;;;5031992;28;20118;-60
2022/08/03 06:58:19;;;;;;;7.40;3.33;;;;;;;;;;5051068;28;20033;-60
2022/08/03 07:00:44;;;;;;;11.85;3.70;;;;;;;;;;5051245;28;20025;-61
2022/08/03 07:03:10;;;;;;;7.93;3.95;;;;;;;;;;5051463;28;20114;-61
2022/08/03 07:05:35;;;;;;;9.13;3.10;;;;;;;;;;5051852;28;20064;-61
2022/08/03 07:08:02;;;;;;;8.48;3.50;;;;;;;;;;5046988;28;20036;-61
2022/08/03 07:10:27;;;;;;;9.25;3.25;;;;;;;;;;5038980;28;20094;-61
2022/08/03 07:12:53;;;;;;;8.57;3.22;;;;;;;;;;5050930;28;20505;-61
2022/08/03 07:15:19;;;;;;;8.18;3.15;;;;;;;;;;5041882;28;20075;-61
2022/08/03 07:17:44;;;;;;;8.52;2.95;;;;;;;;;;5032387;28;20021;-63
2022/08/03 07:20:12;;;;;;;17.65;3.67;;;;;;;;;;5040901;28;20447;-61
2022/08/03 07:22:37;;;;;;;9.25;3.47;;;;;;;;;;5043067;28;20044;-62
2022/08/03 07:25:03;;;;;;;9.32;3.30;;;;;;;;;;5034452;28;20104;-62
2022/08/03 07:27:29;;;;;;;11.07;3.35;;;;;;;;;;5035359;28;20032;-61
2022/08/03 07:29:56;;;;;;;7.32;3.10;;;;;;;;;;5037778;28;20041;-61
2022/08/03 07:32:21;;;;;;;11.45;3.40;;;;;;;;;;5036362;28;20021;-62
2022/08/03 07:34:47;;;;;;;9.82;3.50;;;;;;;;;;5052026;28;20110;-63
2022/08/03 07:37:12;;;;;;;10.73;3.13;;;;;;;;;;5048567;28;20539;-62
2022/08/03 07:39:38;;;;;;;8.15;3.20;;;;;;;;;;5041733;28;20143;-62
2022/08/03 07:42:04;;;;;;;7.55;3.00;;;;;;;;;;5034708;28;20045;-62
2022/08/03 07:44:29;;;;;;;7.75;2.80;;;;;;;;;;5039368;28;20116;-62
2022/08/03 07:46:56;;;;;;;14.68;3.08;;;;;;;;;;5019444;28;20472;-62
2022/08/03 07:49:21;;;;;;;8.52;2.88;;;;;;;;;;5034923;28;20087;-62
2022/08/03 07:52:46;;;;;;;10.88;3.53;;;;;;;;;;5041290;28;20032;-63
2022/08/03 07:54:32;;;;;;;8.27;3.10;;;;;;;;;;5033569;28;20456;-62
2022/08/03 07:56:57;;;;;;;9.50;2.95;;;;;;;;;;5035579;28;20124;-62
2022/08/03 07:59:23;;;;;;;11.27;2.80;;;;;;;;;;5049509;28;20470;-62
2022/08/03 08:01:49;;;;;;;10.60;2.95;;;;;;;;;;5037162;28;20033;-62
2022/08/03 08:04:14;;;;;;;8.63;2.65;;;;;;;;;;5027288;28;20033;-62
2022/08/03 08:06:39;;;;;;;11.20;2.80;;;;;;;;;;5034008;28;20520;-62
2022/08/03 08:09:05;;;;;;;5.15;2.67;;;;;;;;;;5029555;28;20462;-62
2022/08/03 08:11:30;;;;;;;5.95;2.33;;;;;;;;;;5045101;28;20475;-62
2022/08/03 08:13:56;;;;;;;8.82;2.80;;;;;;;;;;5033477;28;20032;-62
2022/08/03 08:16:21;;;;;;;11.15;2.70;;;;;;;;;;5037328;28;20540;-61
2022/08/03 08:18:46;;;;;;;5.10;2.38;;;;;;;;;;5038879;28;20060;-62
2022/08/03 08:21:12;;;;;;;7.00;2.53;;;;;;;;;;5049759;28;20075;-62
2022/08/03 08:23:37;;;;;;;4.50;2.05;;;;;;;;;;5036504;28;20029;-62
2022/08/03 08:26:03;;;;;;;6.03;2.40;;;;;;;;;;5035599;28;20109;-62
2022/08/03 08:28:28;;;;;;;5.28;2.03;;;;;;;;;;5049094;28;20044;-61
2022/08/03 08:30:53;;;;;;;8.10;2.75;;;;;;;;;;5032312;28;20041;-63
2022/08/03 08:33:19;;;;;;;9.35;2.47;;;;;;;;;;5038654;28;20033;-62
2022/08/03 08:35:45;;;;;;;8.55;2.40;;;;;;;;;;5034109;28;20458;-62
2022/08/03 08:38:10;;;;;;;5.25;2.40;;;;;;;;;;5016507;28;20040;-62
2022/08/03 08:40:36;;;;;;;5.97;2.55;;;;;;;;;;5038584;28;20037;-62
2022/08/03 08:43:01;;;;;;;4.72;2.60;;;;;;;;;;5033613;28;20040;-62
2022/08/03 08:45:27;;;;;;;5.85;2.47;;;;;;;;;;5038714;28;20033;-62
2022/08/03 08:47:54;;;;;;;6.25;2.40;;;;;;;;;;5040490;28;20036;-62
2022/08/03 08:50:21;;;;;;;8.55;2.50;;;;;;;;;;5038828;28;20029;-62
2022/08/03 08:52:49;;;;;;;6.72;2.47;;;;;;;;;;5038329;28;20033;-63
2022/08/03 08:55:19;;;;;;;2.85;2.05;;;;;;;;;;5033401;28;20057;-63
2022/08/03 08:58:05;;;;;;;6.07;2.45;;;;;;;;;;5041924;28;20060;-62
2022/08/03 09:00:30;;;;;;;7.45;2.78;;;;;;;;;;5039933;28;20041;-62
2022/08/03 09:02:59;;;;;;;4.90;2.33;;;;;;;;;;5040788;28;20478;-63
2022/08/03 09:05:25;;;;;;;12.10;2.72;;;;;;;;;;5044739;28;20405;-62
2022/08/03 09:07:51;;;;;;;5.70;2.50;;;;;;;;;;5031574;28;20029;-63
2022/08/03 09:10:23;;;;;;;4.80;2.20;;;;;;;;;;5039460;28;20068;-62
2022/08/03 09:12:51;;;;;;;6.25;2.35;;;;;;;;;;5049963;28;20048;-62
2022/08/03 09:15:27;;;;;;;5.75;2.28;;;;;;;;;;5043180;28;20489;-62
2022/08/03 09:17:55;;;;;;;6.22;2.30;;;;;;;;;;5031895;28;20045;-62
2022/08/03 09:20:24;;;;;;;5.78;2.38;;;;;;;;;;5047950;28;20474;-62
2022/08/03 09:22:58;;;;;;;4.10;2.17;;;;;;;;;;5052809;28;20458;-62
2022/08/03 09:25:29;;;;;;;7.15;2.30;;;;;;;;;;5044845;28;20085;-62
2022/08/03 09:28:04;;;;;;;6.43;2.53;;;;;;;;;;5032008;28;20068;-62
2022/08/03 09:30:29;;;;;;;8.80;2.70;;;;;;;;;;5032365;28;20025;-61
2022/08/03 09:33:03;;;;;;;5.18;2.10;;;;;;;;;;5032254;28;20034;-63
2022/08/03 09:35:29;;;;;;;8.80;2.42;;;;;;;;;;5031929;28;20451;-63
2022/08/03 09:38:22;;;;;;;5.03;2.40;;;;;;;;;;5035850;28;20033;-63
2022/08/03 09:40:48;;;;;;;4.07;1.92;;;;;;;;;;5048955;28;20037;-62
2022/08/03 09:43:17;;;;;;;5.47;2.00;;;;;;;;;;5045276;28;20030;-62
2022/08/03 09:45:43;;;;;;;4.32;2.17;;;;;;;;;;5046130;28;20029;-62
2022/08/03 09:48:29;;;;;;;9.35;2.67;;;;;;;;;;5041406;28;20036;-62
2022/08/03 09:51:00;;;;;;;5.82;2.20;;;;;;;;;;5047302;28;20033;-61
2022/08/03 09:53:25;;;;;;;6.72;2.30;;;;;;;;;;5044488;28;20118;-63
2022/08/03 09:55:55;;;;;;;7.68;2.40;;;;;;;;;;5030012;28;20501;-63
2022/08/03 09:58:22;;;;;;;7.43;2.55;;;;;;;;;;5032423;28;20043;-62
2022/08/03 10:00:59;;;;;;;6.10;2.10;;;;;;;;;;5048784;28;20037;-62
2022/08/03 10:03:27;;;;;;;8.88;2.60;;;;;;;;;;5035668;28;20393;-64
2022/08/03 10:05:52;;;;;;;4.07;1.95;;;;;;;;;;5048272;28;20086;-64
2022/08/03 10:08:19;;;;;;;5.55;2.30;;;;;;;;;;5042950;28;20041;-62
2022/08/03 10:10:48;;;;;;;7.68;2.40;;;;;;;;;;5037652;28;20045;-62
2022/08/03 10:13:17;;;;;;;7.63;2.28;;;;;;;;;;5014130;28;20029;-63
2022/08/03 10:15:44;;;;;;;10.82;2.00;;;;;;;;;;5032384;28;20104;-63
2022/08/03 10:18:09;;;;;;;6.15;2.15;;;;;;;;;;5035478;28;20041;-63
2022/08/03 10:21:02;;;;;;;3.60;2.10;;;;;;;;;;5041222;28;20087;-62
2022/08/03 10:23:28;;;;;;;7.03;2.33;;;;;;;;;;5032048;28;20040;-62
2022/08/03 10:25:58;;;;;;;4.82;2.65;;;;;;;;;;5031335;28;20028;-62
2022/08/03 10:28:24;;;;;;;9.70;2.47;;;;;;;;;;5032393;28;20477;-61
2022/08/03 10:30:53;;;;;;;4.53;2.15;;;;;;;;;;5031898;28;20048;-62
2022/08/03 10:33:22;;;;;;;4.25;2.40;;;;;;;;;;5030724;28;20057;-62
2022/08/03 10:35:53;;;;;;;6.20;2.60;;;;;;;;;;5038949;28;20462;-62
2022/08/03 10:38:20;;;;;;;;;;;;;;;;;;5032619;28;20075;-61
2022/08/03 10:40:53;;;;;;;6.18;2.05;;;;;;;;;;5031941;28;19999;-61
2022/08/03 10:43:27;;;;;;;5.28;2.75;;;;;;;;;;5032223;28;20064;-62
2022/08/03 10:45:52;;;;;;;10.18;2.55;;;;;;;;;;5031747;28;20036;-62
2022/08/03 10:48:19;;;;;;;4.82;2.00;;;;;;;;;;5035189;28;20033;-62
2022/08/03 10:50:48;;;;;;;7.03;2.10;;;;;;;;;;5030826;28;20494;-62
2022/08/03 10:53:13;;;;;;;6.78;1.90;;;;;;;;;;5034020;28;20093;-62
2022/08/03 10:58:51;;;;;;;9.13;2.30;;;;;;;;;;5035749;28;20049;-63
2022/08/03 11:01:17;;;;;;;8.13;2.42;;;;;;;;;;5035071;28;20033;-62
2022/08/03 11:03:52;;;;;;;6.68;2.30;;;;;;;;;;5038718;28;20113;-62
2022/08/03 11:06:19;;;;;;;8.55;2.35;;;;;;;;;;5045429;28;20033;-63
2022/08/03 11:08:46;;;;;;;7.80;2.20;;;;;;;;;;5040080;28;20255;-63
2022/08/03 11:11:17;;;;;;;12.40;2.60;;;;;;;;;;5034593;28;20033;-63
2022/08/03 11:14:03;;;;;;;7.88;2.45;;;;;;;;;;5039701;28;20116;-63
2022/08/03 11:16:34;;;;;;;10.23;2.40;;;;;;;;;;5035654;28;20032;-63
2022/08/03 11:19:05;;;;;;;7.93;2.40;;;;;;;;;;5022367;28;20078;-63
2022/08/03 11:24:38;;;;;;;8.02;2.60;;;;;;;;;;5054552;28;20047;-62
2022/08/03 11:27:18;;;;;;;9.18;2.55;;;;;;;;;;5054633;28;20074;-63
2022/08/03 11:29:59;;;;;;;9.63;2.58;;;;;;;;;;5055488;28;20029;-63
2022/08/03 11:32:36;;;;;;;7.50;2.38;;;;;;;;;;5043883;28;20029;-63
2022/08/03 11:35:21;;;;;;;6.80;2.10;;;;;;;;;;5035730;28;20482;-62
2022/08/03 11:38:04;;;;;;;11.23;2.33;;;;;;;;;;5035373;28;20090;-64
2022/08/03 11:40:38;;;;;;;7.10;2.38;;;;;;;;;;5038462;28;20091;-63
2022/08/03 11:43:27;;;;;;;5.50;2.20;;;;;;;;;;5040718;28;20104;-63
2022/08/03 11:46:01;;;;;;;8.80;2.30;;;;;;;;;;5026647;28;20120;-62
2022/08/03 11:48:33;;;;;;;8.82;2.10;;;;;;;;;;5035314;28;20125;-63
2022/08/03 11:51:01;;;;;;;6.68;2.00;;;;;;;;;;5034289;28;20025;-63
2022/08/03 11:53:27;;;;;;;7.80;2.20;;;;;;;;;;5039427;28;20072;-62
2022/08/03 11:55:52;;;;;;;6.70;2.08;;;;;;;;;;5037399;28;20030;-63
2022/08/03 11:58:20;;;;;;;9.00;2.28;;;;;;;;;;5034089;28;20083;-62
2022/08/03 12:00:45;;;;;;;8.02;2.05;;;;;;;;;;5036349;28;20033;-62
2022/08/03 12:03:13;;;;;;;5.00;1.85;;;;;;;;;;5045768;28;20021;-64
2022/08/03 12:05:46;;;;;;;8.85;2.00;;;;;;;;;;5054267;28;20363;-62
2022/08/03 12:08:14;;;;;;;8.07;1.80;;;;;;;;;;5036131;28;20041;-62
2022/08/03 12:10:45;;;;;;;5.18;2.08;;;;;;;;;;5044226;28;20121;-63
2022/08/03 12:13:11;;;;;;;6.38;2.10;;;;;;;;;;5036825;28;20470;-64
2022/08/03 12:15:37;;;;;;;7.20;1.90;;;;;;;;;;5019771;28;20025;-63
2022/08/03 12:18:11;;;;;;;6.25;1.80;;;;;;;;;;5037663;28;20432;-64
2022/08/03 12:20:37;;;;;;;5.35;1.70;;;;;;;;;;5034465;28;20040;-63
2022/08/03 12:23:06;;;;;;;6.25;1.60;;;;;;;;;;5033718;28;20033;-63
2022/08/03 12:25:33;;;;;;;6.68;2.00;;;;;;;;;;5034264;28;20466;-63
2022/08/03 12:28:07;;;;;;;7.20;1.95;;;;;;;;;;5033670;28;20057;-63
2022/08/03 12:30:33;;;;;;;5.63;1.90;;;;;;;;;;5037612;28;20033;-63
2022/08/03 12:33:13;;;;;;;6.13;1.70;;;;;;;;;;5034053;28;20025;-63
2022/08/03 12:35:39;;;;;;;5.90;1.70;;;;;;;;;;5034350;28;20037;-62
2022/08/03 12:38:05;;;;;;;5.85;1.70;;;;;;;;;;5029446;28;20037;-64
2022/08/03 12:40:30;;;;;;;4.10;1.70;;;;;;;;;;5034342;28;20108;-63
2022/08/03 12:42:56;;;;;;;7.10;2.17;;;;;;;;;;5041358;28;20108;-63
2022/08/03 12:45:24;;;;;;;6.95;1.83;;;;;;;;;;5053443;28;20378;-63
2022/08/03 12:47:57;;;;;;;7.40;2.33;;;;;;;;;;5053920;28;20470;-63
2022/08/03 12:50:33;;;;;;;7.30;1.80;;;;;;;;;;5053370;28;20112;-63
2022/08/03 12:53:03;;;;;;;6.20;1.88;;;;;;;;;;5054106;28;20112;-63
2022/08/03 12:55:35;;;;;;;6.32;1.73;;;;;;;;;;5053505;28;20401;-63
2022/08/03 12:58:05;;;;;;;5.13;2.10;;;;;;;;;;5047470;28;20044;-64
2022/08/03 13:00:31;;;;;;;6.07;1.80;;;;;;;;;;5033302;28;20383;-63
2022/08/03 13:03:05;;;;;;;5.97;2.00;;;;;;;;;;5041057;28;20037;-64
2022/08/03 13:05:41;;;;;;;3.88;1.60;;;;;;;;;;5053072;28;20025;-62
2022/08/03 13:08:20;;;;;;;4.65;1.65;;;;;;;;;;5052424;28;20029;-63
2022/08/03 13:10:46;;;;;;;6.60;1.73;;;;;;;;;;5047918;28;20494;-64
2022/08/03 13:13:12;;;;;;;6.72;1.75;;;;;;;;;;5046643;28;20072;-64
2022/08/03 13:15:38;;;;;;;7.85;1.90;;;;;;;;;;5034800;28;20065;-63
2022/08/03 13:18:03;;;;;;;6.13;1.60;;;;;;;;;;5033635;28;20060;-64
2022/08/03 13:20:29;;;;;;;5.32;1.80;;;;;;;;;;5015639;28;20060;-64
2022/08/03 13:22:55;;;;;;;6.28;1.65;;;;;;;;;;5033377;28;20079;-63
2022/08/03 13:25:21;;;;;;;6.65;1.60;;;;;;;;;;5036012;28;20108;-64
2022/08/03 13:27:47;;;;;;;2.95;1.42;;;;;;;;;;5042433;28;20107;-63
2022/08/03 13:30:13;;;;;;;3.65;1.67;;;;;;;;;;5045104;28;20044;-63
2022/08/03 13:32:39;;;;;;;6.68;1.70;;;;;;;;;;5030530;28;20064;-63
2022/08/03 13:35:06;;;;;;;5.75;1.70;;;;;;;;;;5022959;28;20040;-63
2022/08/03 13:37:32;;;;;;;6.38;1.80;;;;;;;;;;5049311;28;20026;-63
2022/08/03 13:39:57;;;;;;;4.45;1.67;;;;;;;;;;5048705;28;20025;-63
2022/08/03 13:42:24;;;;;;;7.10;1.98;;;;;;;;;;5051318;28;20237;-64
2022/08/03 13:44:49;;;;;;;8.18;1.88;;;;;;;;;;5049651;28;20070;-63
2022/08/03 13:47:15;;;;;;;6.70;1.83;;;;;;;;;;5047116;28;20115;-64
2022/08/03 13:49:40;;;;;;;5.93;1.85;;;;;;;;;;5039450;28;20370;-63
2022/08/03 13:52:06;;;;;;;7.65;1.70;;;;;;;;;;5014221;28;20025;-63
2022/08/03 13:54:32;;;;;;;9.88;1.80;;;;;;;;;;5032581;28;20033;-63
2022/08/03 13:56:58;;;;;;;5.78;1.77;;;;;;;;;;5033479;28;20056;-63
2022/08/03 13:59:24;;;;;;;6.90;1.70;;;;;;;;;;5031600;28;20367;-64
2022/08/03 14:01:52;;;;;;;6.00;1.65;;;;;;;;;;5032876;28;20037;-63
2022/08/03 14:04:18;;;;;;;5.05;1.60;;;;;;;;;;5031713;28;20026;-63
2022/08/03 14:06:44;;;;;;;6.40;1.98;;;;;;;;;;5032416;28;20048;-63
2022/08/03 14:09:13;;;;;;;7.50;1.85;;;;;;;;;;5044130;28;20466;-64
2022/08/03 14:11:40;;;;;;;3.80;1.67;;;;;;;;;;5049014;28;20056;-64
2022/08/03 14:14:05;;;;;;;4.75;1.70;;;;;;;;;;5030113;28;20262;-63
2022/08/03 14:16:31;;;;;;;5.50;1.70;;;;;;;;;;5035677;28;20052;-64
2022/08/03 14:18:56;;;;;;;9.65;1.80;;;;;;;;;;5052008;28;20034;-63
2022/08/03 14:21:21;;;;;;;5.60;1.60;;;;;;;;;;5034720;28;20490;-63
2022/08/03 14:23:47;;;;;;;5.93;2.00;;;;;;;;;;5040774;28;20036;-64
2022/08/03 14:26:13;;;;;;;6.22;1.80;;;;;;;;;;5030351;28;20481;-64
2022/08/03 14:28:39;;;;;;;5.10;1.50;;;;;;;;;;5038270;28;20036;-64
2022/08/03 14:31:05;;;;;;;5.78;2.08;;;;;;;;;;5046602;28;20496;-63
2022/08/03 14:33:31;;;;;;;5.05;1.80;;;;;;;;;;5018606;28;20029;-63
2022/08/03 14:35:57;;;;;;;6.60;1.80;;;;;;;;;;5032215;28;20493;-63
2022/08/03 14:38:23;;;;;;;4.88;1.73;;;;;;;;;;5029934;28;20068;-64
2022/08/03 14:40:50;;;;;;;6.28;1.83;;;;;;;;;;5037631;28;20037;-64
2022/08/03 14:43:16;;;;;;;5.38;1.83;;;;;;;;;;5034704;28;20048;-64
2022/08/03 14:45:42;;;;;;;5.90;1.90;;;;;;;;;;5030466;28;20029;-64
2022/08/03 14:48:08;;;;;;;6.90;1.70;;;;;;;;;;5043452;28;20044;-63
2022/08/03 14:50:33;;;;;;;3.83;1.58;;;;;;;;;;5033471;28;20029;-64
2022/08/03 14:52:59;;;;;;;5.78;1.70;;;;;;;;;;5041252;28;20102;-64
2022/08/03 14:55:24;;;;;;;5.45;1.75;;;;;;;;;;5042963;28;20038;-64
2022/08/03 14:57:49;;;;;;;6.13;1.85;;;;;;;;;;5031696;28;20049;-64
2022/08/03 15:00:15;;;;;;;4.15;1.60;;;;;;;;;;5037591;28;20045;-65